sensor_id;sensor_type;location;lat;lon;timestamp;pressure;altitude;pressure_sealevel;temperature;humidity
63622;BME280;49770;47.544;19.074;2023-06-14T04:16:54;100099.34;;;11.64;100.00
63622;BME280;49770;47.544;19.074;2023-06-14T04:19:58;100110.78;;;11.65;100.00
63622;BME280;49770;47.544;19.074;2023-06-14T04:23:15;100117.38;;;11.73;100.00
63622;BME280;49770;47.544;19.074;2023-06-14T04:26:21;100107.47;;;11.92;100.00
63622;BME280;49770;47.544;19.074;2023-06-14T04:29:28;100119.50;;;12.13;100.00
63622;BME280;49770;47.544;19.074;2023-06-14T04:32:33;100121.22;;;12.44;100.00
63622;BME280;49770;47.544;19.074;2023-06-14T04:35:37;100125.41;;;12.77;100.00
63622;BME280;49770;47.544;19.074;2023-06-14T04:38:41;100116.88;;;13.14;100.00
63622;BME280;49770;47.544;19.074;2023-06-14T04:41:46;100120.25;;;13.30;100.00
63622;BME280;49770;47.544;19.074;2023-06-14T04:44:53;100119.94;;;13.35;100.00
63622;BME280;49770;47.544;19.074;2023-06-14T04:47:59;100121.34;;;13.55;100.00
63622;BME280;49770;47.544;19.074;2023-06-14T04:51:02;100121.81;;;13.75;100.00
63622;BME280;49770;47.544;19.074;2023-06-14T04:54:06;100123.53;;;13.89;100.00
63622;BME280;49770;47.544;19.074;2023-06-14T04:57:12;100125.56;;;13.98;100.00
63622;BME280;49770;47.544;19.074;2023-06-14T05:00:20;100126.97;;;14.17;100.00
63622;BME280;49770;47.544;19.074;2023-06-14T05:03:23;100124.09;;;14.46;100.00
63622;BME280;49770;47.544;19.074;2023-06-14T05:06:26;100131.97;;;14.74;100.00
63622;BME280;49770;47.544;19.074;2023-06-14T05:09:30;100128.91;;;15.17;100.00
63622;BME280;49770;47.544;19.074;2023-06-14T05:12:32;100137.66;;;15.19;100.00
63622;BME280;49770;47.544;19.074;2023-06-14T05:15:38;100124.81;;;15.49;100.00
63622;BME280;49770;47.544;19.074;2023-06-14T05:18:41;100129.50;;;15.94;100.00
63622;BME280;49770;47.544;19.074;2023-06-14T05:21:44;100130.75;;;18.14;100.00
63622;BME280;49770;47.544;19.074;2023-06-14T05:24:47;100135.31;;;21.29;81.35
63622;BME280;49770;47.544;19.074;2023-06-14T05:27:51;100127.59;;;23.03;68.67
63622;BME280;49770;47.544;19.074;2023-06-14T05:30:53;100140.06;;;25.59;60.20
63622;BME280;49770;47.544;19.074;2023-06-14T05:33:56;100142.63;;;25.52;52.11
63622;BME280;49770;47.544;19.074;2023-06-14T05:36:59;100131.97;;;23.64;54.95
63622;BME280;49770;47.544;19.074;2023-06-14T05:40:04;100135.09;;;21.95;62.97
63622;BME280;49770;47.544;19.074;2023-06-14T05:43:08;100134.25;;;20.94;65.25
63622;BME280;49770;47.544;19.074;2023-06-14T05:46:11;100136.47;;;20.70;67.51
63622;BME280;49770;47.544;19.074;2023-06-14T05:49:13;100133.69;;;20.90;67.11
63622;BME280;49770;47.544;19.074;2023-06-14T05:52:16;100140.50;;;21.59;63.65
63622;BME280;49770;47.544;19.074;2023-06-14T05:55:19;100132.16;;;22.06;60.12
63622;BME280;49770;47.544;19.074;2023-06-14T05:58:22;100136.63;;;23.20;57.78
63622;BME280;49770;47.544;19.074;2023-06-14T06:01:25;100141.09;;;23.03;55.95
63622;BME280;49770;47.544;19.074;2023-06-14T06:04:27;100136.25;;;24.65;53.01
63622;BME280;49770;47.544;19.074;2023-06-14T06:07:30;100141.47;;;25.93;47.56
63622;BME280;49770;47.544;19.074;2023-06-14T06:10:33;100141.94;;;26.80;45.54
63622;BME280;49770;47.544;19.074;2023-06-14T06:13:36;100137.25;;;27.04;45.21
63622;BME280;49770;47.544;19.074;2023-06-14T06:16:39;100133.66;;;28.06;42.44
63622;BME280;49770;47.544;19.074;2023-06-14T06:19:42;100135.53;;;26.13;45.33
63622;BME280;49770;47.544;19.074;2023-06-14T06:22:45;100136.94;;;25.38;47.04
63622;BME280;49770;47.544;19.074;2023-06-14T06:25:48;100139.44;;;26.33;44.77
63622;BME280;49770;47.544;19.074;2023-06-14T06:28:51;100139.66;;;25.38;47.39
63622;BME280;49770;47.544;19.074;2023-06-14T06:31:53;100142.50;;;25.92;46.27
63622;BME280;49770;47.544;19.074;2023-06-14T06:34:58;100142.28;;;25.78;47.37
63622;BME280;49770;47.544;19.074;2023-06-14T06:38:02;100145.56;;;25.19;47.69
63622;BME280;49770;47.544;19.074;2023-06-14T06:41:05;100145.84;;;24.27;50.62
63622;BME280;49770;47.544;19.074;2023-06-14T06:44:08;100149.41;;;24.03;51.10
63622;BME280;49770;47.544;19.074;2023-06-14T06:47:13;100140.41;;;22.31;56.93
63622;BME280;49770;47.544;19.074;2023-06-14T06:50:18;100139.44;;;21.70;60.63
63622;BME280;49770;47.544;19.074;2023-06-14T06:53:21;100137.91;;;21.21;60.58
63622;BME280;49770;47.544;19.074;2023-06-14T06:56:41;100136.41;;;21.18;61.10
63622;BME280;49770;47.544;19.074;2023-06-14T06:59:44;100138.84;;;21.30;61.89
63622;BME280;49770;47.544;19.074;2023-06-14T07:02:47;100131.13;;;21.17;63.03
63622;BME280;49770;47.544;19.074;2023-06-14T07:05:50;100132.09;;;21.62;62.19
63622;BME280;49770;47.544;19.074;2023-06-14T07:08:53;100133.69;;;22.09;60.34
63622;BME280;49770;47.544;19.074;2023-06-14T07:11:56;100138.66;;;21.96;60.10
63622;BME280;49770;47.544;19.074;2023-06-14T07:14:59;100139.41;;;21.51;61.03
63622;BME280;49770;47.544;19.074;2023-06-14T07:18:04;100136.53;;;22.07;60.65
63622;BME280;49770;47.544;19.074;2023-06-14T07:21:07;100148.53;;;22.58;58.06
63622;BME280;49770;47.544;19.074;2023-06-14T07:24:10;100147.19;;;21.91;59.65
63622;BME280;49770;47.544;19.074;2023-06-14T07:27:12;100139.66;;;22.21;58.81
63622;BME280;49770;47.544;19.074;2023-06-14T07:30:17;100140.00;;;22.18;58.64
63622;BME280;49770;47.544;19.074;2023-06-14T07:33:20;100132.47;;;21.67;60.31
63622;BME280;49770;47.544;19.074;2023-06-14T07:36:23;100138.19;;;21.64;60.79
63622;BME280;49770;47.544;19.074;2023-06-14T07:43:11;100142.16;;;22.67;57.01
63622;BME280;49770;47.544;19.074;2023-06-14T07:46:14;100148.34;;;23.46;54.21
63622;BME280;49770;47.544;19.074;2023-06-14T07:49:17;100147.72;;;23.68;53.27
63622;BME280;49770;47.544;19.074;2023-06-14T07:52:20;100159.06;;;23.64;54.04
63622;BME280;49770;47.544;19.074;2023-06-14T07:55:23;100156.00;;;23.83;52.44
63622;BME280;49770;47.544;19.074;2023-06-14T07:58:28;100145.31;;;23.49;53.49
63622;BME280;49770;47.544;19.074;2023-06-14T08:01:32;100155.28;;;22.54;55.15
63622;BME280;49770;47.544;19.074;2023-06-14T08:04:36;100155.19;;;22.45;54.60
63622;BME280;49770;47.544;19.074;2023-06-14T08:07:39;100150.00;;;23.30;55.21
63622;BME280;49770;47.544;19.074;2023-06-14T08:10:42;100150.41;;;23.77;50.74
63622;BME280;49770;47.544;19.074;2023-06-14T08:13:44;100157.03;;;24.16;49.49
63622;BME280;49770;47.544;19.074;2023-06-14T08:16:49;100154.16;;;23.67;49.30
63622;BME280;49770;47.544;19.074;2023-06-14T08:19:52;100160.22;;;23.53;50.34
63622;BME280;49770;47.544;19.074;2023-06-14T08:23:00;100153.97;;;24.02;49.91
63622;BME280;49770;47.544;19.074;2023-06-14T08:26:04;100154.09;;;24.50;49.05
63622;BME280;49770;47.544;19.074;2023-06-14T08:29:08;100155.63;;;25.33;47.16
63622;BME280;49770;47.544;19.074;2023-06-14T08:32:11;100156.19;;;25.52;46.59
63622;BME280;49770;47.544;19.074;2023-06-14T08:35:14;100157.06;;;26.22;42.74
63622;BME280;49770;47.544;19.074;2023-06-14T08:38:20;100156.41;;;26.66;43.10
63622;BME280;49770;47.544;19.074;2023-06-14T08:41:23;100161.09;;;26.57;43.81
63622;BME280;49770;47.544;19.074;2023-06-14T08:48:06;100173.50;;;25.19;45.11
63622;BME280;49770;47.544;19.074;2023-06-14T08:51:11;100172.59;;;24.39;47.49
63622;BME280;49770;47.544;19.074;2023-06-14T08:54:16;100187.00;;;24.06;48.72
63622;BME280;49770;47.544;19.074;2023-06-14T08:57:19;100181.03;;;23.09;50.47
63622;BME280;49770;47.544;19.074;2023-06-14T09:00:23;100179.69;;;22.70;52.89
63622;BME280;49770;47.544;19.074;2023-06-14T09:03:27;100190.78;;;22.94;52.01
63622;BME280;49770;47.544;19.074;2023-06-14T09:06:33;100185.41;;;23.02;52.31
63622;BME280;49770;47.544;19.074;2023-06-14T09:09:40;100191.69;;;23.11;51.22
63622;BME280;49770;47.544;19.074;2023-06-14T09:13:04;100188.84;;;23.12;52.32
63622;BME280;49770;47.544;19.074;2023-06-14T09:16:07;100189.22;;;22.83;52.32
63622;BME280;49770;47.544;19.074;2023-06-14T09:19:21;100190.59;;;23.30;50.32
63622;BME280;49770;47.544;19.074;2023-06-14T09:22:25;100194.91;;;23.14;50.32
63622;BME280;49770;47.544;19.074;2023-06-14T09:25:27;100200.84;;;23.18;50.44
63622;BME280;49770;47.544;19.074;2023-06-14T09:28:49;100194.91;;;23.14;52.01
63622;BME280;49770;47.544;19.074;2023-06-14T09:31:53;100195.47;;;23.26;50.23
63622;BME280;49770;47.544;19.074;2023-06-14T09:34:56;100192.06;;;23.16;51.01
63622;BME280;49770;47.544;19.074;2023-06-14T09:37:59;100186.03;;;23.31;51.85
63622;BME280;49770;47.544;19.074;2023-06-14T09:41:03;100186.34;;;23.27;50.91
63622;BME280;49770;47.544;19.074;2023-06-14T09:44:10;100175.53;;;23.27;51.96
63622;BME280;49770;47.544;19.074;2023-06-14T09:47:23;100180.06;;;23.19;51.73
63622;BME280;49770;47.544;19.074;2023-06-14T09:50:28;100181.62;;;25.27;44.53
63622;BME280;49770;47.544;19.074;2023-06-14T09:53:35;100180.13;;;25.80;42.54
63622;BME280;49770;47.544;19.074;2023-06-14T09:56:41;100170.09;;;26.42;41.28
63622;BME280;49770;47.544;19.074;2023-06-14T09:59:47;100166.44;;;26.35;41.27
63622;BME280;49770;47.544;19.074;2023-06-14T10:02:54;100165.97;;;27.07;40.06
63622;BME280;49770;47.544;19.074;2023-06-14T10:06:05;100158.87;;;27.64;37.04
63622;BME280;49770;47.544;19.074;2023-06-14T10:09:10;100163.00;;;28.04;35.74
63622;BME280;49770;47.544;19.074;2023-06-14T10:12:13;100166.94;;;28.23;34.64
63622;BME280;49770;47.544;19.074;2023-06-14T10:15:35;100156.25;;;28.00;34.93
63622;BME280;49770;47.544;19.074;2023-06-14T10:22:19;100158.84;;;29.07;32.24
63622;BME280;49770;47.544;19.074;2023-06-14T10:25:25;100159.28;;;30.27;29.85
63622;BME280;49770;47.544;19.074;2023-06-14T10:28:28;100154.22;;;32.07;28.52
63622;BME280;49770;47.544;19.074;2023-06-14T10:31:59;100156.09;;;32.32;26.16
63622;BME280;49770;47.544;19.074;2023-06-14T10:35:06;100154.63;;;29.67;30.71
63622;BME280;49770;47.544;19.074;2023-06-14T10:38:11;100151.06;;;29.93;31.26
63622;BME280;49770;47.544;19.074;2023-06-14T10:41:16;100148.72;;;29.63;31.12
63622;BME280;49770;47.544;19.074;2023-06-14T10:47:27;100148.38;;;28.11;34.61
63622;BME280;49770;47.544;19.074;2023-06-14T10:50:31;100144.50;;;26.67;34.94
63622;BME280;49770;47.544;19.074;2023-06-14T10:53:42;100144.63;;;25.58;40.03
63622;BME280;49770;47.544;19.074;2023-06-14T10:56:50;100143.19;;;25.15;41.06
63622;BME280;49770;47.544;19.074;2023-06-14T10:59:53;100139.72;;;24.50;44.29
63622;BME280;49770;47.544;19.074;2023-06-14T11:07:10;100140.44;;;24.75;42.13
63622;BME280;49770;47.544;19.074;2023-06-14T11:10:39;100143.34;;;25.54;40.68
63622;BME280;49770;47.544;19.074;2023-06-14T11:13:44;100134.34;;;25.92;39.71
63622;BME280;49770;47.544;19.074;2023-06-14T11:16:49;100134.41;;;26.22;37.77
63622;BME280;49770;47.544;19.074;2023-06-14T11:20:10;100135.78;;;26.71;36.17
63622;BME280;49770;47.544;19.074;2023-06-14T11:23:14;100125.72;;;26.27;39.38
63622;BME280;49770;47.544;19.074;2023-06-14T11:26:24;100129.94;;;25.44;39.66
63622;BME280;49770;47.544;19.074;2023-06-14T11:29:29;100133.28;;;25.78;37.86
63622;BME280;49770;47.544;19.074;2023-06-14T11:32:37;100129.81;;;26.07;36.63
63622;BME280;49770;47.544;19.074;2023-06-14T11:35:41;100125.84;;;26.33;37.98
63622;BME280;49770;47.544;19.074;2023-06-14T11:38:44;100120.12;;;26.58;38.19
63622;BME280;49770;47.544;19.074;2023-06-14T11:41:47;100132.03;;;25.89;40.23
63622;BME280;49770;47.544;19.074;2023-06-14T11:44:50;100131.56;;;26.69;37.97
63622;BME280;49770;47.544;19.074;2023-06-14T11:47:55;100130.34;;;26.03;40.17
63622;BME280;49770;47.544;19.074;2023-06-14T11:50:59;100127.19;;;25.52;41.67
63622;BME280;49770;47.544;19.074;2023-06-14T11:54:03;100125.00;;;26.48;40.99
63622;BME280;49770;47.544;19.074;2023-06-14T11:57:09;100122.28;;;27.30;38.26
63622;BME280;49770;47.544;19.074;2023-06-14T12:00:13;100125.50;;;27.40;39.19
63622;BME280;49770;47.544;19.074;2023-06-14T12:03:22;100124.81;;;27.75;37.93
63622;BME280;49770;47.544;19.074;2023-06-14T12:06:27;100132.09;;;28.18;37.58
63622;BME280;49770;47.544;19.074;2023-06-14T12:09:31;100134.34;;;25.92;40.48
63622;BME280;49770;47.544;19.074;2023-06-14T12:12:39;100135.50;;;25.51;40.61
63622;BME280;49770;47.544;19.074;2023-06-14T12:15:42;100133.34;;;25.46;41.18
63622;BME280;49770;47.544;19.074;2023-06-14T12:18:47;100138.38;;;25.58;40.21
63622;BME280;49770;47.544;19.074;2023-06-14T12:21:50;100137.25;;;24.72;42.22
63622;BME280;49770;47.544;19.074;2023-06-14T12:24:53;100120.62;;;23.77;44.50
63622;BME280;49770;47.544;19.074;2023-06-14T12:27:57;100130.94;;;23.98;45.40
63622;BME280;49770;47.544;19.074;2023-06-14T12:31:00;100124.50;;;23.41;44.70
63622;BME280;49770;47.544;19.074;2023-06-14T12:34:03;100125.50;;;24.40;44.33
63622;BME280;49770;47.544;19.074;2023-06-14T12:37:06;100129.81;;;24.74;43.64
63622;BME280;49770;47.544;19.074;2023-06-14T12:40:09;100137.94;;;24.66;42.49
63622;BME280;49770;47.544;19.074;2023-06-14T12:43:15;100138.09;;;24.07;42.31
63622;BME280;49770;47.544;19.074;2023-06-14T12:46:21;100136.88;;;23.93;42.16
63622;BME280;49770;47.544;19.074;2023-06-14T12:49:24;100130.75;;;24.33;41.81
63622;BME280;49770;47.544;19.074;2023-06-14T12:52:27;100133.53;;;24.81;41.36
63622;BME280;49770;47.544;19.074;2023-06-14T12:55:30;100131.34;;;25.08;39.16
63622;BME280;49770;47.544;19.074;2023-06-14T12:58:33;100134.91;;;25.09;39.36
63622;BME280;49770;47.544;19.074;2023-06-14T13:01:38;100133.25;;;24.99;38.12
63622;BME280;49770;47.544;19.074;2023-06-14T13:04:42;100133.16;;;24.84;38.54
63622;BME280;49770;47.544;19.074;2023-06-14T13:07:44;100118.91;;;24.01;39.14
63622;BME280;49770;47.544;19.074;2023-06-14T13:10:47;100117.38;;;24.40;40.75
63622;BME280;49770;47.544;19.074;2023-06-14T13:13:50;100120.47;;;24.68;39.56
63622;BME280;49770;47.544;19.074;2023-06-14T13:16:53;100118.59;;;24.12;39.29
63622;BME280;49770;47.544;19.074;2023-06-14T13:38:30;100108.69;;;23.20;41.59
63622;BME280;49770;47.544;19.074;2023-06-14T13:45:11;100106.16;;;23.10;40.36
63622;BME280;49770;47.544;19.074;2023-06-14T13:48:14;100105.31;;;23.18;38.64
63622;BME280;49770;47.544;19.074;2023-06-14T13:51:17;100100.31;;;23.39;39.80
63622;BME280;49770;47.544;19.074;2023-06-14T13:54:22;100098.31;;;23.66;37.41
63622;BME280;49770;47.544;19.074;2023-06-14T13:57:24;100101.00;;;23.75;37.63
63622;BME280;49770;47.544;19.074;2023-06-14T14:00:29;100103.00;;;24.06;39.47
63622;BME280;49770;47.544;19.074;2023-06-14T14:03:32;100104.81;;;24.47;39.12
63622;BME280;49770;47.544;19.074;2023-06-14T14:06:35;100105.31;;;24.42;38.84
63622;BME280;49770;47.544;19.074;2023-06-14T14:09:38;100101.66;;;24.67;38.75
63622;BME280;49770;47.544;19.074;2023-06-14T14:12:41;100100.44;;;24.29;39.51
63622;BME280;49770;47.544;19.074;2023-06-14T14:15:44;100096.09;;;24.12;38.45
63622;BME280;49770;47.544;19.074;2023-06-14T14:18:47;100105.97;;;24.53;38.30
63622;BME280;49770;47.544;19.074;2023-06-14T14:21:50;100103.59;;;24.49;37.43
63622;BME280;49770;47.544;19.074;2023-06-14T14:24:53;100111.19;;;24.62;36.70
63622;BME280;49770;47.544;19.074;2023-06-14T14:27:56;100109.69;;;24.52;35.90
63622;BME280;49770;47.544;19.074;2023-06-14T14:30:59;100105.72;;;23.89;38.18
63622;BME280;49770;47.544;19.074;2023-06-14T14:34:02;100091.69;;;24.11;37.32
63622;BME280;49770;47.544;19.074;2023-06-14T14:37:05;100100.69;;;23.53;39.14
63622;BME280;49770;47.544;19.074;2023-06-14T14:40:08;100108.44;;;23.81;35.25
63622;BME280;49770;47.544;19.074;2023-06-14T14:43:12;100096.94;;;23.62;34.77
63622;BME280;49770;47.544;19.074;2023-06-14T14:46:14;100095.06;;;23.79;36.45
63622;BME280;49770;47.544;19.074;2023-06-14T14:49:19;100093.56;;;24.10;34.26
63622;BME280;49770;47.544;19.074;2023-06-14T14:52:23;100099.62;;;24.12;34.46
63622;BME280;49770;47.544;19.074;2023-06-14T14:55:27;100105.56;;;23.99;35.28
63622;BME280;49770;47.544;19.074;2023-06-14T14:58:30;100098.09;;;24.26;35.00
63622;BME280;49770;47.544;19.074;2023-06-14T15:01:32;100101.69;;;24.10;34.51
63622;BME280;49770;47.544;19.074;2023-06-14T15:04:36;100102.00;;;23.57;37.22
63622;BME280;49770;47.544;19.074;2023-06-14T15:07:38;100094.41;;;23.69;38.23
63622;BME280;49770;47.544;19.074;2023-06-14T15:14:00;100094.00;;;23.22;39.04
63622;BME280;49770;47.544;19.074;2023-06-14T15:17:03;100084.81;;;22.98;37.19
63622;BME280;49770;47.544;19.074;2023-06-14T15:20:10;100092.31;;;23.21;37.95
63622;BME280;49770;47.544;19.074;2023-06-14T15:23:15;100093.94;;;22.89;39.48
63622;BME280;49770;47.544;19.074;2023-06-14T15:26:22;100093.59;;;22.92;40.91
63622;BME280;49770;47.544;19.074;2023-06-14T15:29:28;100081.78;;;23.01;40.85
63622;BME280;49770;47.544;19.074;2023-06-14T15:32:30;100082.25;;;22.80;42.96
63622;BME280;49770;47.544;19.074;2023-06-14T15:35:33;100079.81;;;22.69;42.71
63622;BME280;49770;47.544;19.074;2023-06-14T15:38:36;100076.09;;;22.70;42.98
63622;BME280;49770;47.544;19.074;2023-06-14T15:41:39;100078.44;;;22.65;44.21
63622;BME280;49770;47.544;19.074;2023-06-14T15:44:42;100075.34;;;22.94;43.10
63622;BME280;49770;47.544;19.074;2023-06-14T15:47:44;100072.66;;;23.11;43.02
63622;BME280;49770;47.544;19.074;2023-06-14T15:50:47;100083.16;;;22.54;44.60
63622;BME280;49770;47.544;19.074;2023-06-14T15:53:50;100079.53;;;22.45;45.52
63622;BME280;49770;47.544;19.074;2023-06-14T15:56:54;100080.84;;;22.41;45.54
63622;BME280;49770;47.544;19.074;2023-06-14T15:59:57;100085.59;;;22.39;45.91
63622;BME280;49770;47.544;19.074;2023-06-14T16:02:59;100083.69;;;22.31;46.71
63622;BME280;49770;47.544;19.074;2023-06-14T16:06:02;100086.69;;;22.55;46.03
63622;BME280;49770;47.544;19.074;2023-06-14T16:09:05;100086.84;;;22.53;46.04
63622;BME280;49770;47.544;19.074;2023-06-14T16:12:08;100086.78;;;22.45;47.08
63622;BME280;49770;47.544;19.074;2023-06-14T16:15:11;100089.81;;;22.42;45.62
63622;BME280;49770;47.544;19.074;2023-06-14T16:18:14;100088.97;;;22.41;45.20
63622;BME280;49770;47.544;19.074;2023-06-14T16:21:16;100093.81;;;22.29;46.20
63622;BME280;49770;47.544;19.074;2023-06-14T16:24:19;100097.16;;;22.23;45.70
63622;BME280;49770;47.544;19.074;2023-06-14T16:27:22;100103.34;;;22.15;45.99
63622;BME280;49770;47.544;19.074;2023-06-14T16:30:26;100102.19;;;22.18;47.00
63622;BME280;49770;47.544;19.074;2023-06-14T16:33:29;100102.06;;;22.01;46.64
63622;BME280;49770;47.544;19.074;2023-06-14T16:36:39;100108.03;;;22.13;46.50
63622;BME280;49770;47.544;19.074;2023-06-14T16:39:42;100112.81;;;21.57;46.46
63622;BME280;49770;47.544;19.074;2023-06-14T16:42:45;100111.28;;;21.54;47.45
63622;BME280;49770;47.544;19.074;2023-06-14T16:45:47;100112.03;;;21.28;47.29
63622;BME280;49770;47.544;19.074;2023-06-14T16:48:50;100117.72;;;21.07;47.57
63622;BME280;49770;47.544;19.074;2023-06-14T16:51:53;100125.47;;;20.92;48.48
63622;BME280;49770;47.544;19.074;2023-06-14T16:54:56;100118.53;;;20.89;48.84
63622;BME280;49770;47.544;19.074;2023-06-14T16:58:00;100125.63;;;20.90;50.21
63622;BME280;49770;47.544;19.074;2023-06-14T17:01:03;100119.53;;;20.88;50.74
63622;BME280;49770;47.544;19.074;2023-06-14T17:04:05;100124.31;;;20.94;48.34
63622;BME280;49770;47.544;19.074;2023-06-14T17:07:08;100132.34;;;21.04;49.67
63622;BME280;49770;47.544;19.074;2023-06-14T17:10:13;100131.25;;;20.97;48.68
63622;BME280;49770;47.544;19.074;2023-06-14T17:13:16;100137.00;;;20.74;49.75
63622;BME280;49770;47.544;19.074;2023-06-14T17:16:19;100130.53;;;20.67;49.65
63622;BME280;49770;47.544;19.074;2023-06-14T17:19:22;100138.94;;;20.54;51.74
63622;BME280;49770;47.544;19.074;2023-06-14T17:22:25;100135.13;;;20.46;52.95
63622;BME280;49770;47.544;19.074;2023-06-14T17:25:28;100131.78;;;20.25;53.91
63622;BME280;49770;47.544;19.074;2023-06-14T17:28:34;100137.91;;;20.17;54.60
63622;BME280;49770;47.544;19.074;2023-06-14T17:31:38;100136.22;;;20.06;55.78
63622;BME280;49770;47.544;19.074;2023-06-14T17:34:41;100137.34;;;19.93;56.18
63622;BME280;49770;47.544;19.074;2023-06-14T17:37:44;100139.31;;;19.91;56.74
63622;BME280;49770;47.544;19.074;2023-06-14T17:40:46;100148.69;;;19.77;57.02
63622;BME280;49770;47.544;19.074;2023-06-14T17:43:52;100145.97;;;19.77;56.71
63622;BME280;49770;47.544;19.074;2023-06-14T17:46:55;100149.41;;;19.79;56.71
63622;BME280;49770;47.544;19.074;2023-06-14T17:49:58;100150.53;;;19.77;58.59
63622;BME280;49770;47.544;19.074;2023-06-14T17:53:03;100152.78;;;19.82;57.41
63622;BME280;49770;47.544;19.074;2023-06-14T17:56:09;100154.06;;;19.77;57.89
63622;BME280;49770;47.544;19.074;2023-06-14T17:59:11;100150.97;;;19.82;57.71
63622;BME280;49770;47.544;19.074;2023-06-14T18:02:15;100147.84;;;19.87;57.83
63622;BME280;49770;47.544;19.074;2023-06-14T18:05:18;100158.87;;;19.84;57.58
63622;BME280;49770;47.544;19.074;2023-06-14T18:08:21;100151.66;;;19.84;58.46
63622;BME280;49770;47.544;19.074;2023-06-14T18:11:24;100162.44;;;19.84;59.06
63622;BME280;49770;47.544;19.074;2023-06-14T18:14:27;100164.25;;;19.84;58.11
63622;BME280;49770;47.544;19.074;2023-06-14T18:17:31;100158.19;;;19.82;59.13
63622;BME280;49770;47.544;19.074;2023-06-14T18:20:34;100160.44;;;19.76;59.95
63622;BME280;49770;47.544;19.074;2023-06-14T18:23:37;100160.31;;;19.68;58.32
63622;BME280;49770;47.544;19.074;2023-06-14T18:26:39;100158.03;;;19.63;58.37
63622;BME280;49770;47.544;19.074;2023-06-14T18:29:42;100158.75;;;19.65;58.34
63622;BME280;49770;47.544;19.074;2023-06-14T18:32:45;100163.38;;;19.53;58.99
63622;BME280;49770;47.544;19.074;2023-06-14T18:35:50;100163.56;;;19.52;59.02
63622;BME280;49770;47.544;19.074;2023-06-14T18:38:53;100166.06;;;19.44;58.79
63622;BME280;49770;47.544;19.074;2023-06-14T18:41:57;100172.00;;;19.37;59.58
63622;BME280;49770;47.544;19.074;2023-06-14T18:45:01;100167.34;;;19.30;59.20
63622;BME280;49770;47.544;19.074;2023-06-14T18:48:05;100171.28;;;19.25;59.11
63622;BME280;49770;47.544;19.074;2023-06-14T18:51:09;100173.88;;;19.47;57.38
63622;BME280;49770;47.544;19.074;2023-06-14T18:54:12;100171.72;;;19.31;59.97
63622;BME280;49770;47.544;19.074;2023-06-14T18:57:15;100180.47;;;19.13;59.30
63622;BME280;49770;47.544;19.074;2023-06-14T19:00:19;100182.56;;;19.09;60.37
63622;BME280;49770;47.544;19.074;2023-06-14T19:03:23;100182.13;;;19.04;61.09
63622;BME280;49770;47.544;19.074;2023-06-14T19:06:26;100192.94;;;18.93;61.25
63622;BME280;49770;47.544;19.074;2023-06-14T19:09:30;100197.88;;;18.88;62.23
63622;BME280;49770;47.544;19.074;2023-06-14T19:12:34;100198.41;;;18.81;62.51
63622;BME280;49770;47.544;19.074;2023-06-14T19:15:37;100199.47;;;18.69;63.73
63622;BME280;49770;47.544;19.074;2023-06-14T19:18:41;100209.94;;;18.62;63.78
63622;BME280;49770;47.544;19.074;2023-06-14T19:21:44;100209.87;;;18.52;64.49
63622;BME280;49770;47.544;19.074;2023-06-14T19:24:48;100215.50;;;18.49;65.12
63622;BME280;49770;47.544;19.074;2023-06-14T19:27:51;100213.47;;;18.41;65.24
63622;BME280;49770;47.544;19.074;2023-06-14T19:30:54;100216.66;;;18.35;65.88
63622;BME280;49770;47.544;19.074;2023-06-14T19:33:58;100220.16;;;18.26;66.78
63622;BME280;49770;47.544;19.074;2023-06-14T19:37:01;100224.47;;;18.17;67.62
63622;BME280;49770;47.544;19.074;2023-06-14T19:40:06;100233.75;;;18.01;69.53
63622;BME280;49770;47.544;19.074;2023-06-14T19:43:09;100228.78;;;17.97;70.64
63622;BME280;49770;47.544;19.074;2023-06-14T19:46:12;100233.09;;;17.88;72.25
63622;BME280;49770;47.544;19.074;2023-06-14T19:49:16;100234.19;;;17.85;73.28
63622;BME280;49770;47.544;19.074;2023-06-14T19:52:19;100240.44;;;17.74;76.89
63622;BME280;49770;47.544;19.074;2023-06-14T19:55:25;100239.00;;;17.70;77.57
63622;BME280;49770;47.544;19.074;2023-06-14T19:58:28;100241.69;;;17.70;78.28
63622;BME280;49770;47.544;19.074;2023-06-14T20:01:31;100233.53;;;17.60;80.43
63622;BME280;49770;47.544;19.074;2023-06-14T20:04:34;100248.13;;;17.68;79.22
63622;BME280;49770;47.544;19.074;2023-06-14T20:07:39;100243.94;;;17.54;81.46
63622;BME280;49770;47.544;19.074;2023-06-14T20:10:42;100236.38;;;17.47;82.39
63622;BME280;49770;47.544;19.074;2023-06-14T20:13:45;100236.50;;;17.46;81.28
63622;BME280;49770;47.544;19.074;2023-06-14T20:16:48;100233.34;;;17.41;81.58
63622;BME280;49770;47.544;19.074;2023-06-14T20:19:51;100240.19;;;17.33;82.74
63622;BME280;49770;47.544;19.074;2023-06-14T20:22:55;100233.13;;;17.32;81.66
63622;BME280;49770;47.544;19.074;2023-06-14T20:25:58;100233.44;;;17.39;80.59
63622;BME280;49770;47.544;19.074;2023-06-14T20:29:01;100232.63;;;17.38;81.17
63622;BME280;49770;47.544;19.074;2023-06-14T20:32:04;100233.94;;;17.21;81.04
63622;BME280;49770;47.544;19.074;2023-06-14T20:35:08;100236.66;;;17.10;82.61
63622;BME280;49770;47.544;19.074;2023-06-14T20:38:11;100233.81;;;17.00;84.91
63622;BME280;49770;47.544;19.074;2023-06-14T20:41:14;100232.97;;;17.00;83.95
63622;BME280;49770;47.544;19.074;2023-06-14T20:44:17;100234.91;;;16.86;83.53
63622;BME280;49770;47.544;19.074;2023-06-14T20:47:20;100229.78;;;16.83;82.33
63622;BME280;49770;47.544;19.074;2023-06-14T20:50:23;100230.53;;;16.85;80.98